Time;durP1;ratioP1;P1;durP2;ratioP2;P2;SDS_P1;SDS_P2;PMS_P1;PMS_P2;Temp;Humidity;BMP_temperature;BMP_pressure;BME280_temperature;BME280_humidity;BME280_pressure;Samples;Min_cycle;Max_cycle;Signal;HPM_P1;HPM_P2
2023/01/18 00:01:05;;;;;;;45.03;19.95;;;;;;;-3.92;100.00;98845.34;5022829;28;20573;-70
2023/01/18 00:03:32;;;;;;;49.45;20.75;;;;;;;-3.87;100.00;98849.25;5043607;28;20395;-69
2023/01/18 00:06:00;;;;;;;46.20;21.40;;;;;;;-3.93;100.00;98846.25;5042640;28;20555;-69
2023/01/18 00:08:28;;;;;;;48.50;20.30;;;;;;;-3.96;100.00;98841.38;5026406;28;20064;-69
2023/01/18 00:10:53;;;;;;;44.45;20.80;;;;;;;-3.98;100.00;98844.97;5025003;28;20288;-69
2023/01/18 00:13:18;;;;;;;42.95;19.88;;;;;;;-4.00;100.00;98844.28;5042474;28;20521;-70
2023/01/18 00:15:44;;;;;;;51.85;20.52;;;;;;;-4.00;100.00;98845.06;5041117;28;20163;-70
2023/01/18 00:18:09;;;;;;;44.38;20.83;;;;;;;-4.00;100.00;98854.41;5046877;28;20402;-70
2023/01/18 00:20:35;;;;;;;46.63;20.38;;;;;;;-4.00;100.00;98849.34;5043747;28;20067;-70
2023/01/18 00:23:01;;;;;;;43.33;20.05;;;;;;;-4.01;100.00;98852.78;5045251;28;20041;-69
2023/01/18 00:25:27;;;;;;;49.22;20.08;;;;;;;-4.00;100.00;98841.75;5045457;28;20045;-70
2023/01/18 00:27:54;;;;;;;44.55;19.88;;;;;;;-3.99;100.00;98859.34;5043147;28;20017;-69
2023/01/18 00:30:22;;;;;;;42.50;20.00;;;;;;;-4.01;100.00;98851.06;5028332;28;20060;-70
2023/01/18 00:32:51;;;;;;;47.15;20.52;;;;;;;-4.03;100.00;98854.59;5032071;28;20035;-69
2023/01/18 00:35:20;;;;;;;51.58;22.88;;;;;;;-4.06;100.00;98853.13;5026450;28;20029;-69
2023/01/18 00:37:47;;;;;;;58.05;23.08;;;;;;;-4.04;100.00;98860.59;5020052;28;20024;-70
2023/01/18 00:40:13;;;;;;;54.05;21.52;;;;;;;-4.07;100.00;98859.09;5031695;28;20483;-70
2023/01/18 00:45:25;;;;;;;46.33;20.63;;;;;;;-4.15;100.00;98868.97;5043588;28;20055;-69
2023/01/18 00:47:50;;;;;;;52.38;21.90;;;;;;;-4.15;100.00;98863.91;5044018;28;20037;-69
2023/01/18 00:50:18;;;;;;;49.70;20.08;;;;;;;-4.15;100.00;98866.44;5045885;28;20040;-69
2023/01/18 00:52:45;;;;;;;49.17;19.23;;;;;;;-4.13;100.00;98864.59;5031215;28;20134;-69
2023/01/18 00:55:11;;;;;;;41.30;19.42;;;;;;;-4.18;100.00;98862.41;5030265;28;20086;-69
2023/01/18 00:57:37;;;;;;;44.42;18.65;;;;;;;-4.19;100.00;98870.09;5043212;28;20033;-69
2023/01/18 01:00:04;;;;;;;49.60;18.85;;;;;;;-4.22;100.00;98855.94;5030278;28;20037;-70
2023/01/18 01:02:30;;;;;;;51.38;19.27;;;;;;;-4.23;100.00;98866.19;5043410;28;20042;-69
2023/01/18 01:07:40;;;;;;;42.67;19.02;;;;;;;-4.24;100.00;98867.06;5038959;28;20064;-69
2023/01/18 01:10:07;;;;;;;53.33;20.52;;;;;;;-4.25;100.00;98873.06;5030999;28;20034;-69
2023/01/18 01:26:14;;;;;;;38.25;18.48;;;;;;;-4.34;100.00;98885.44;5042127;28;20041;-69
2023/01/18 01:28:44;;;;;;;39.78;17.33;;;;;;;-4.35;100.00;98875.41;5044916;28;20041;-70
2023/01/18 01:31:13;;;;;;;41.05;19.13;;;;;;;-4.35;100.00;98888.91;5021024;28;20030;-69
2023/01/18 01:33:39;;;;;;;48.20;18.27;;;;;;;-4.35;100.00;98890.59;5040030;28;20045;-70
2023/01/18 01:36:13;;;;;;;44.10;18.05;;;;;;;-4.35;100.00;98888.06;5043469;28;20044;-69
2023/01/18 01:38:42;;;;;;;43.25;18.65;;;;;;;-4.37;100.00;98887.38;5042045;28;20033;-70
2023/01/18 01:41:14;;;;;;;46.80;18.60;;;;;;;-4.35;100.00;98895.66;5044002;28;20033;-69
2023/01/18 01:43:45;;;;;;;46.90;17.20;;;;;;;-4.37;100.00;98893.28;5027513;28;20220;-70
2023/01/18 01:46:36;;;;;;;44.58;18.65;;;;;;;-4.37;100.00;98903.38;5045454;28;20044;-69
2023/01/18 01:49:12;;;;;;;41.97;17.17;;;;;;;-4.39;100.00;98905.22;5028383;28;20041;-69
2023/01/18 01:51:45;;;;;;;40.60;17.42;;;;;;;-4.39;100.00;98905.22;5026507;28;20036;-69
2023/01/18 01:54:20;;;;;;;44.33;17.15;;;;;;;-4.39;100.00;98912.00;5028248;28;20064;-69
2023/01/18 01:56:48;;;;;;;39.88;17.73;;;;;;;-4.41;100.00;98909.56;5026511;28;20112;-69
2023/01/18 01:59:14;;;;;;;37.45;17.35;;;;;;;-4.41;100.00;98911.28;5011833;28;20033;-70
2023/01/18 02:01:42;;;;;;;37.38;17.75;;;;;;;-4.43;100.00;98906.31;5028729;28;20466;-69
2023/01/18 02:04:09;;;;;;;47.85;17.30;;;;;;;-4.44;100.00;98904.72;5028215;28;20453;-69
2023/01/18 02:06:36;;;;;;;38.20;17.05;;;;;;;-4.44;100.00;98924.16;5046503;28;20060;-69
2023/01/18 02:09:06;;;;;;;43.38;16.90;;;;;;;-4.46;100.00;98914.16;5012439;28;20523;-69
2023/01/18 02:11:32;;;;;;;40.42;17.50;;;;;;;-4.45;100.00;98914.94;5045222;28;20087;-70
2023/01/18 02:14:01;;;;;;;44.03;19.42;;;;;;;-4.45;100.00;98920.00;5024569;28;20032;-69
2023/01/18 02:17:12;;;;;;;40.92;17.25;;;;;;;-4.46;100.00;98926.81;5044052;28;20043;-69
2023/01/18 02:19:59;;;;;;;39.63;17.70;;;;;;;-4.48;100.00;98922.75;5043749;28;20031;-69
2023/01/18 02:22:40;;;;;;;39.85;18.20;;;;;;;-4.50;100.00;98921.16;5027775;28;20083;-69
2023/01/18 02:25:55;;;;;;;35.30;17.35;;;;;;;-4.51;100.00;98928.84;5028573;28;20048;-69
2023/01/18 02:28:44;;;;;;;42.53;17.90;;;;;;;-4.56;100.00;98920.75;5042738;28;20029;-69
2023/01/18 02:31:17;;;;;;;36.65;16.63;;;;;;;-4.58;100.00;98923.38;5040863;28;20399;-70
2023/01/18 02:34:00;;;;;;;45.22;17.35;;;;;;;-4.58;100.00;98918.31;5030696;28;20120;-69
2023/01/18 02:36:38;;;;;;;34.13;15.95;;;;;;;-4.59;100.00;98918.44;5026220;28;20040;-70
2023/01/18 02:39:37;;;;;;;44.90;17.55;;;;;;;-4.60;100.00;98914.28;5028142;28;20025;-69
2023/01/18 02:48:03;;;;;;;45.00;17.00;;;;;;;-4.60;100.00;98919.34;5040314;28;20491;-69
2023/01/18 02:50:29;;;;;;;38.00;17.08;;;;;;;-4.62;100.00;98924.50;5018766;28;20055;-69
2023/01/18 02:52:54;;;;;;;35.95;16.27;;;;;;;-4.66;100.00;98933.22;5047747;28;20470;-69
2023/01/18 02:55:29;;;;;;;43.30;17.13;;;;;;;-4.66;100.00;98934.94;5046384;28;20029;-69
2023/01/18 02:58:03;;;;;;;40.78;17.15;;;;;;;-4.69;100.00;98935.94;5028165;28;20533;-69
2023/01/18 03:00:33;;;;;;;42.90;17.27;;;;;;;-4.69;100.00;98930.88;5029630;28;20049;-69
2023/01/18 03:02:59;;;;;;;45.03;17.83;;;;;;;-4.71;100.00;98936.06;5028972;28;20331;-69
2023/01/18 03:05:26;;;;;;;41.53;17.52;;;;;;;-4.72;100.00;98939.50;5044228;28;20119;-71
2023/01/18 03:08:04;;;;;;;40.75;16.77;;;;;;;-4.72;100.00;98938.69;5041817;28;20102;-69
2023/01/18 03:10:32;;;;;;;45.17;17.27;;;;;;;-4.73;100.00;98939.59;5044424;28;20041;-68
2023/01/18 03:13:15;;;;;;;39.40;17.55;;;;;;;-4.75;100.00;98949.00;5030443;28;20119;-69
2023/01/18 03:15:40;;;;;;;42.67;16.85;;;;;;;-4.76;100.00;98943.16;5046116;28;20062;-69
2023/01/18 03:18:58;;;;;;;46.70;17.02;;;;;;;-4.77;100.00;98944.06;5030396;28;20040;-70
2023/01/18 03:21:30;;;;;;;41.83;16.98;;;;;;;-4.81;100.00;98954.50;5002200;28;20037;-69
2023/01/18 03:23:59;;;;;;;38.25;16.80;;;;;;;-4.82;100.00;98946.09;5029373;28;20056;-70
2023/01/18 03:26:27;;;;;;;34.53;16.98;;;;;;;-4.83;100.00;98948.72;5044021;28;20483;-69
2023/01/18 03:34:54;;;;;;;41.85;17.45;;;;;;;-4.87;100.00;98967.56;5025506;28;20314;-69
2023/01/18 03:37:26;;;;;;;44.78;16.60;;;;;;;-4.87;100.00;98965.03;5044860;28;20083;-70
2023/01/18 03:39:57;;;;;;;36.42;17.88;;;;;;;-4.90;100.00;98959.28;5042430;28;20068;-70
2023/01/18 03:42:30;;;;;;;37.05;16.75;;;;;;;-4.91;100.00;98967.75;5026787;28;20115;-69
2023/01/18 03:45:10;;;;;;;39.83;15.73;;;;;;;-4.93;100.00;98971.31;5025737;28;20086;-71
2023/01/18 03:47:36;;;;;;;36.13;15.65;;;;;;;-4.95;100.00;98968.06;5027673;28;20391;-69
2023/01/18 03:50:01;;;;;;;38.13;16.33;;;;;;;-4.97;100.00;98967.34;5039531;28;20037;-70
2023/01/18 03:52:37;;;;;;;40.67;17.10;;;;;;;-4.99;100.00;98959.88;5027687;28;20044;-69
2023/01/18 03:55:10;;;;;;;53.03;20.08;;;;;;;-4.99;100.00;98970.00;5028032;28;20032;-69
2023/01/18 03:58:04;;;;;;;82.07;27.20;;;;;;;-4.99;100.00;98970.00;5007612;28;20048;-69
2023/01/18 04:00:30;;;;;;;101.80;32.60;;;;;;;-5.00;100.00;98972.63;5031292;28;20044;-69
2023/01/18 04:02:55;;;;;;;83.57;29.40;;;;;;;-5.01;100.00;98974.34;5043381;28;20082;-70
2023/01/18 04:05:21;;;;;;;53.83;22.20;;;;;;;-5.01;100.00;98984.47;5039453;28;20187;-69
2023/01/18 04:07:47;;;;;;;47.03;19.95;;;;;;;-5.01;100.00;98983.63;5043119;28;20060;-69
2023/01/18 04:10:12;;;;;;;41.05;17.80;;;;;;;-5.04;100.00;98988.91;5023071;28;20438;-70
2023/01/18 04:12:38;;;;;;;44.25;17.85;;;;;;;-5.03;100.00;98985.44;5038910;28;20044;-70
2023/01/18 04:15:04;;;;;;;39.67;17.73;;;;;;;-5.04;100.00;98984.66;5038837;28;20033;-69
2023/01/18 04:17:30;;;;;;;41.30;16.50;;;;;;;-5.08;100.00;98988.28;5027760;28;20267;-69
2023/01/18 04:19:55;;;;;;;42.83;17.38;;;;;;;-5.10;100.00;98993.44;5044970;28;20056;-69
2023/01/18 04:22:21;;;;;;;41.10;17.00;;;;;;;-5.11;100.00;98993.53;5041832;28;20029;-69
2023/01/18 04:24:46;;;;;;;44.53;17.35;;;;;;;-5.11;100.00;99003.66;5040208;28;20045;-71
2023/01/18 04:27:12;;;;;;;50.85;20.05;;;;;;;-5.11;100.00;99004.44;5039520;28;20029;-69
2023/01/18 04:29:37;;;;;;;52.42;20.73;;;;;;;-5.11;100.00;99008.69;5024777;28;20041;-69
2023/01/18 04:32:04;;;;;;;43.10;19.10;;;;;;;-5.13;100.00;99008.78;5042986;28;20040;-68
2023/01/18 04:34:30;;;;;;;51.88;20.00;;;;;;;-5.15;100.00;98997.97;5021389;28;20182;-69
2023/01/18 04:36:56;;;;;;;46.50;20.25;;;;;;;-5.15;100.00;99004.75;5042842;28;20122;-68
2023/01/18 04:39:21;;;;;;;53.55;20.25;;;;;;;-5.16;100.00;99009.00;5021238;28;20479;-68
2023/01/18 04:41:47;;;;;;;43.45;20.08;;;;;;;-5.15;100.00;99003.03;5024083;28;20487;-70
2023/01/18 04:44:12;;;;;;;43.55;19.27;;;;;;;-5.16;100.00;99013.25;5022738;28;20026;-69
2023/01/18 04:46:38;;;;;;;42.85;20.05;;;;;;;-5.20;100.00;99010.09;5038281;28;20056;-69
2023/01/18 04:49:05;;;;;;;44.70;19.73;;;;;;;-5.19;100.00;99011.72;5028159;28;20045;-69
2023/01/18 04:51:31;;;;;;;38.92;19.17;;;;;;;-5.18;100.00;99012.53;5044450;28;20088;-69
2023/01/18 04:53:58;;;;;;;43.22;19.33;;;;;;;-5.18;100.00;99015.88;5044880;28;20032;-69
2023/01/18 04:56:24;;;;;;;42.95;20.65;;;;;;;-5.19;100.00;99013.47;5041577;28;20033;-69
2023/01/18 04:58:52;;;;;;;46.13;20.95;;;;;;;-5.19;100.00;99021.84;5019656;28;20120;-70
2023/01/18 05:01:18;;;;;;;54.08;20.60;;;;;;;-5.18;100.00;99020.13;5021601;28;20090;-69
2023/01/18 05:03:44;;;;;;;50.80;21.10;;;;;;;-5.11;100.00;99024.66;5047299;28;20643;-69
2023/01/18 05:06:12;;;;;;;38.92;18.90;;;;;;;-5.11;100.00;99027.19;5049891;28;20049;-69
2023/01/18 05:08:40;;;;;;;52.60;20.40;;;;;;;-5.08;100.00;99038.84;5029813;28;20123;-69
2023/01/18 05:11:09;;;;;;;44.90;20.05;;;;;;;-5.08;100.00;99038.84;5045304;28;20107;-69
2023/01/18 05:13:34;;;;;;;43.10;19.92;;;;;;;-5.08;100.00;99033.78;5030417;28;20692;-69
2023/01/18 05:16:01;;;;;;;44.80;20.52;;;;;;;-5.07;100.00;99037.91;5029567;28;20041;-69
2023/01/18 05:18:27;;;;;;;49.00;20.88;;;;;;;-4.99;100.00;99055.13;5029971;28;20036;-69
2023/01/18 05:20:53;;;;;;;51.15;21.58;;;;;;;-4.98;100.00;99041.59;5046396;28;20041;-69
2023/01/18 05:23:18;;;;;;;50.38;19.48;;;;;;;-4.97;100.00;99040.66;5024307;28;20483;-69
2023/01/18 05:25:44;;;;;;;46.33;20.40;;;;;;;-4.92;100.00;99054.63;5044459;28;20033;-71
2023/01/18 05:28:09;;;;;;;49.22;20.48;;;;;;;-4.86;100.00;99057.66;5045772;28;20025;-68
2023/01/18 05:30:41;;;;;;;40.80;20.60;;;;;;;-4.84;100.00;99060.91;5043561;28;20114;-70
2023/01/18 05:33:08;;;;;;;46.08;19.67;;;;;;;-4.82;100.00;99067.50;5031050;28;20136;-69
2023/01/18 05:35:34;;;;;;;51.55;21.52;;;;;;;-4.83;100.00;99070.94;5028887;28;20296;-69
2023/01/18 05:38:00;;;;;;;53.63;20.67;;;;;;;-4.85;100.00;99074.47;5043980;28;20024;-69
2023/01/18 05:40:26;;;;;;;43.30;19.85;;;;;;;-4.86;100.00;99073.63;5050448;28;20067;-70
2023/01/18 05:42:52;;;;;;;48.90;20.27;;;;;;;-4.87;100.00;99078.81;5047367;28;20038;-69
2023/01/18 05:45:18;;;;;;;47.17;20.35;;;;;;;-4.81;100.00;99080.94;5025711;28;20037;-70
2023/01/18 05:47:44;;;;;;;49.13;18.92;;;;;;;-4.82;100.00;99081.84;5010369;28;20078;-69
2023/01/18 05:50:10;;;;;;;50.25;20.77;;;;;;;-4.83;100.00;99090.34;5047667;28;20504;-70
2023/01/18 05:52:35;;;;;;;67.57;23.77;;;;;;;-4.76;100.00;99092.38;5045137;28;20048;-69
2023/01/18 05:55:01;;;;;;;57.78;23.60;;;;;;;-4.74;100.00;99104.94;5041804;28;20036;-70
2023/01/18 05:57:26;;;;;;;56.67;23.17;;;;;;;-4.73;100.00;99104.00;5047867;28;20036;-69
2023/01/18 05:59:52;;;;;;;73.15;28.70;;;;;;;-4.72;100.00;99103.13;5042366;28;20380;-70
2023/01/18 06:02:17;;;;;;;67.53;25.15;;;;;;;-4.68;100.00;99104.53;5049877;28;20036;-70
2023/01/18 06:04:43;;;;;;;73.20;26.77;;;;;;;-4.70;100.00;99112.22;5025790;28;20045;-70
2023/01/18 06:07:10;;;;;;;92.30;32.83;;;;;;;-4.73;100.00;99107.38;5043813;28;20115;-69
2023/01/18 06:09:36;;;;;;;91.15;31.90;;;;;;;-4.68;100.00;99101.19;5025725;28;20095;-69
2023/01/18 06:12:02;;;;;;;84.55;29.95;;;;;;;-4.56;100.00;99102.91;5048064;28;20406;-69
2023/01/18 06:14:27;;;;;;;62.78;25.27;;;;;;;-4.47;100.00;99111.63;5044664;28;20040;-71
2023/01/18 06:16:53;;;;;;;53.28;24.50;;;;;;;-4.47;100.00;99114.16;5044506;28;20037;-69
2023/01/18 06:19:18;;;;;;;59.15;26.13;;;;;;;-4.41;100.00;99119.59;5041890;28;20029;-70
2023/01/18 06:21:44;;;;;;;65.45;25.17;;;;;;;-4.46;100.00;99118.28;5036443;28;20041;-70
2023/01/18 06:24:09;;;;;;;59.10;23.38;;;;;;;-4.46;100.00;99123.34;5046329;28;20064;-69
2023/01/18 06:26:35;;;;;;;53.35;24.52;;;;;;;-4.46;100.00;99131.78;5028458;28;20045;-70
2023/01/18 06:29:00;;;;;;;47.28;22.33;;;;;;;-4.54;100.00;99134.81;5043596;28;20479;-70
2023/01/18 06:31:26;;;;;;;49.63;21.58;;;;;;;-4.57;100.00;99141.78;5009249;28;20083;-70
2023/01/18 06:33:51;;;;;;;49.03;21.70;;;;;;;-4.60;100.00;99139.44;5044897;28;20621;-69
2023/01/18 06:36:17;;;;;;;58.85;23.33;;;;;;;-4.62;100.00;99146.31;5027457;28;20048;-69
2023/01/18 06:38:42;;;;;;;49.72;21.67;;;;;;;-4.62;100.00;99143.78;5023821;28;20021;-70
2023/01/18 06:41:08;;;;;;;50.90;21.58;;;;;;;-4.59;100.00;99143.59;5038242;28;20731;-69
2023/01/18 06:43:34;;;;;;;52.78;22.35;;;;;;;-4.58;100.00;99153.59;5028124;28;20041;-70
2023/01/18 06:46:00;;;;;;;52.85;21.83;;;;;;;-4.59;100.00;99149.47;5041885;28;20044;-69
2023/01/18 06:48:26;;;;;;;48.95;21.27;;;;;;;-4.59;100.00;99156.25;5025307;28;20470;-69
2023/01/18 06:50:55;;;;;;;49.15;21.45;;;;;;;-4.61;100.00;99160.59;5038908;28;20041;-71
2023/01/18 06:53:21;;;;;;;45.63;19.88;;;;;;;-4.62;100.00;99162.31;5046175;28;20025;-70
2023/01/18 06:55:57;;;;;;;48.35;21.92;;;;;;;-4.50;100.00;99171.66;5045318;28;20052;-69
2023/01/18 06:58:24;;;;;;;53.08;22.58;;;;;;;-4.53;100.00;99174.38;5045989;28;20475;-70
2023/01/18 07:00:53;;;;;;;54.92;24.40;;;;;;;-4.52;100.00;99181.06;5009457;28;20434;-69
2023/01/18 07:03:19;;;;;;;50.90;23.05;;;;;;;-4.54;100.00;99174.47;5045752;28;20029;-69
2023/01/18 07:05:45;;;;;;;54.97;21.08;;;;;;;-4.48;100.00;99173.25;5040532;28;20107;-69
2023/01/18 07:08:11;;;;;;;47.80;20.77;;;;;;;-4.51;100.00;99181.88;5026156;28;20056;-69
2023/01/18 07:10:36;;;;;;;55.88;22.40;;;;;;;-4.41;100.00;99180.34;5043328;28;20124;-70
2023/01/18 07:13:02;;;;;;;56.95;22.10;;;;;;;-4.32;100.00;99184.00;5044070;28;20533;-70
2023/01/18 07:15:27;;;;;;;46.55;21.25;;;;;;;-4.34;100.00;99194.22;5026269;28;20766;-70
2023/01/18 07:17:53;;;;;;;53.65;21.70;;;;;;;-4.31;100.00;99191.50;5041087;28;20039;-71
2023/01/18 07:20:18;;;;;;;47.85;22.90;;;;;;;-4.21;100.00;99196.78;5024040;28;20611;-69
2023/01/18 07:22:44;;;;;;;57.83;23.73;;;;;;;-4.16;100.00;99201.53;5041576;28;20033;-70
2023/01/18 07:25:17;;;;;;;56.72;21.75;;;;;;;-4.10;100.00;99201.13;5025022;28;20613;-70
2023/01/18 07:27:42;;;;;;;51.22;21.80;;;;;;;-4.15;100.00;99214.09;5027665;28;20056;-70
2023/01/18 07:30:11;;;;;;;49.72;21.55;;;;;;;-4.22;100.00;99217.94;5012026;28;20033;-69
2023/01/18 07:32:37;;;;;;;52.45;22.05;;;;;;;-4.19;100.00;99225.31;5043717;28;20087;-70
2023/01/18 07:35:04;;;;;;;45.47;20.58;;;;;;;-4.14;100.00;99214.91;5024221;28;20037;-69
2023/01/18 07:37:30;;;;;;;52.72;22.77;;;;;;;-4.12;100.00;99233.34;5045409;28;20080;-70
2023/01/18 07:39:56;;;;;;;49.90;23.70;;;;;;;-4.12;100.00;99234.16;5042323;28;20059;-72
2023/01/18 07:42:21;;;;;;;61.10;25.50;;;;;;;-4.09;100.00;99238.19;5040685;28;20033;-72
2023/01/18 07:44:47;;;;;;;58.30;23.85;;;;;;;-4.05;100.00;99237.09;5019824;28;20041;-70
2023/01/18 07:47:13;;;;;;;52.22;23.58;;;;;;;-3.89;100.00;99241.16;5038580;28;20047;-70
2023/01/18 07:49:38;;;;;;;47.60;23.52;;;;;;;-3.85;100.00;99240.03;5044161;28;20064;-71
2023/01/18 07:52:04;;;;;;;51.63;23.23;;;;;;;-3.87;100.00;99242.66;5043434;28;20041;-71
2023/01/18 07:54:30;;;;;;;50.47;23.40;;;;;;;-3.73;100.00;99254.41;5026538;28;20033;-70
2023/01/18 07:56:55;;;;;;;49.22;20.77;;;;;;;-3.77;100.00;99248.75;5038280;28;20032;-70
2023/01/18 07:59:21;;;;;;;57.70;22.83;;;;;;;-3.72;100.00;99251.75;5025122;28;20103;-71
2023/01/18 08:01:46;;;;;;;46.67;21.30;;;;;;;-3.64;100.00;99256.31;5042986;28;20118;-70
2023/01/18 08:04:12;;;;;;;47.45;21.75;;;;;;;-3.71;100.00;99255.13;5040892;28;20029;-72
2023/01/18 08:06:37;;;;;;;51.08;23.30;;;;;;;-3.65;100.00;99254.72;5042167;28;20029;-70
2023/01/18 08:09:03;;;;;;;54.60;22.67;;;;;;;-3.67;100.00;99255.72;5039215;28;20108;-70
2023/01/18 08:11:28;;;;;;;50.60;23.08;;;;;;;-3.63;100.00;99254.63;5035040;28;20495;-70
2023/01/18 08:13:54;;;;;;;57.95;21.88;;;;;;;-3.64;100.00;99263.13;5009464;28;20464;-70
2023/01/18 08:16:19;;;;;;;51.63;22.02;;;;;;;-3.61;100.00;99261.19;5021938;28;20495;-71
2023/01/18 08:18:48;;;;;;;49.50;22.58;;;;;;;-3.49;100.00;99264.63;5043364;28;20041;-70
2023/01/18 08:21:13;;;;;;;55.97;22.17;;;;;;;-3.49;100.00;99267.16;5041464;28;20037;-70
2023/01/18 08:23:39;;;;;;;52.67;23.48;;;;;;;-3.36;100.00;99270.47;5030142;28;20051;-70
2023/01/18 08:26:06;;;;;;;49.58;21.58;;;;;;;-3.33;100.00;99277.88;5042332;28;20449;-70
2023/01/18 08:28:32;;;;;;;56.70;21.63;;;;;;;-3.11;100.00;99268.78;5042975;28;20453;-70
2023/01/18 08:31:27;;;;;;;51.95;21.77;;;;;;;-3.16;100.00;99286.06;5041545;28;20456;-70
2023/01/18 08:33:53;;;;;;;54.58;21.80;;;;;;;-3.05;100.00;99287.84;5034699;28;20052;-71
2023/01/18 08:36:20;;;;;;;55.30;21.13;;;;;;;-2.91;100.00;99287.72;5026635;28;20045;-70
2023/01/18 08:38:50;;;;;;;45.60;19.75;;;;;;;-2.85;100.00;99294.09;5047494;28;20483;-71
2023/01/18 08:41:17;;;;;;;42.13;19.00;;;;;;;-2.82;100.00;99289.63;5030275;28;20044;-71
2023/01/18 08:43:44;;;;;;;53.03;20.35;;;;;;;-2.73;100.00;99298.31;5048706;28;20025;-71
2023/01/18 08:46:09;;;;;;;41.05;18.88;;;;;;;-2.76;100.00;99308.69;5045156;28;20046;-71
2023/01/18 08:48:35;;;;;;;43.67;18.73;;;;;;;-2.82;100.00;99302.31;5045705;28;20029;-72
2023/01/18 08:51:01;;;;;;;62.90;20.75;;;;;;;-2.72;100.00;99307.53;5045885;28;20474;-70
2023/01/18 08:53:28;;;;;;;43.30;20.77;;;;;;;-2.61;100.00;99311.88;5045506;28;20034;-72
2023/01/18 08:55:54;;;;;;;42.22;18.25;;;;;;;-2.62;100.00;99312.78;5025327;28;20368;-71
2023/01/18 08:58:19;;;;;;;45.03;19.85;;;;;;;-2.48;100.00;99319.44;5048413;28;20079;-71
2023/01/18 09:00:49;;;;;;;46.45;19.30;;;;;;;-2.42;100.00;99329.16;5043706;28;20534;-72
2023/01/18 09:03:20;;;;;;;45.30;18.80;;;;;;;-2.40;100.00;99323.03;5032186;28;20029;-71
2023/01/18 09:05:47;;;;;;;35.95;17.88;;;;;;;-2.38;100.00;99328.81;5026986;28;20086;-71
2023/01/18 09:08:12;;;;;;;41.60;18.40;;;;;;;-2.34;100.00;99331.94;5043876;28;20029;-71
2023/01/18 09:10:38;;;;;;;39.33;17.83;;;;;;;-2.26;100.00;99332.22;5043523;28;20034;-71
2023/01/18 09:13:04;;;;;;;40.22;18.75;;;;;;;-2.19;100.00;99333.38;5047023;28;20499;-72
2023/01/18 09:15:30;;;;;;;43.92;17.13;;;;;;;-2.17;100.00;99344.28;5042244;28;20040;-72
2023/01/18 09:17:57;;;;;;;39.42;18.63;;;;;;;-2.10;100.00;99351.44;5045192;28;20029;-72
2023/01/18 09:20:23;;;;;;;40.22;18.00;;;;;;;-2.13;100.00;99356.72;5044212;28;20117;-71
2023/01/18 09:22:48;;;;;;;55.63;18.27;;;;;;;-2.06;100.00;99347.75;5045455;28;20036;-72
2023/01/18 09:25:16;;;;;;;44.92;17.73;;;;;;;-2.07;100.00;99349.50;5043703;28;20403;-71
2023/01/18 09:27:43;;;;;;;41.65;17.67;;;;;;;-1.94;100.00;99344.34;5045394;28;20494;-71
2023/01/18 09:30:09;;;;;;;40.75;16.98;;;;;;;-1.99;100.00;99342.13;5029302;28;20043;-71
2023/01/18 09:32:35;;;;;;;38.13;17.67;;;;;;;-1.97;100.00;99352.19;5030717;28;20116;-71
2023/01/18 09:35:01;;;;;;;49.72;17.58;;;;;;;-1.95;100.00;99355.41;5018237;28;20752;-71
2023/01/18 09:37:27;;;;;;;37.40;17.90;;;;;;;-1.91;100.00;99356.00;5022935;28;20084;-71
2023/01/18 09:39:52;;;;;;;39.35;16.55;;;;;;;-1.93;100.00;99361.19;5040518;28;20037;-71
2023/01/18 09:42:26;;;;;;;41.70;17.75;;;;;;;-1.82;100.00;99371.38;5043360;28;20049;-72
2023/01/18 09:44:57;;;;;;;37.03;18.70;;;;;;;-1.81;100.00;99367.94;5044488;28;20390;-71
2023/01/18 09:47:27;;;;;;;33.50;16.58;;;;;;;-1.81;100.00;99379.81;5047187;28;20079;-71
2023/01/18 09:49:58;;;;;;;37.95;17.60;;;;;;;-1.79;100.00;99385.59;5024967;28;20103;-72
2023/01/18 09:52:26;;;;;;;39.15;16.52;;;;;;;-1.83;100.00;99381.66;5028512;28;20611;-71
2023/01/18 09:55:05;;;;;;;34.58;17.20;;;;;;;-1.84;100.00;99380.84;5043360;28;20037;-73
2023/01/18 09:57:36;;;;;;;32.65;16.25;;;;;;;-1.81;100.00;99393.34;5045508;28;20372;-72
2023/01/18 10:00:14;;;;;;;33.30;17.52;;;;;;;-1.75;100.00;99387.03;5028454;28;21409;-72
2023/01/18 10:02:42;;;;;;;35.60;16.70;;;;;;;-1.75;100.00;99397.19;5044543;28;20041;-72
2023/01/18 10:05:16;;;;;;;38.33;17.58;;;;;;;-1.73;100.00;99394.50;5045580;28;20084;-74
2023/01/18 10:08:01;;;;;;;35.30;17.00;;;;;;;-1.75;100.00;99394.66;5030565;28;20455;-73
2023/01/18 10:10:33;;;;;;;39.97;17.30;;;;;;;-1.62;100.00;99397.06;5025562;28;20704;-72
2023/01/18 10:13:24;;;;;;;32.55;17.00;;;;;;;-1.63;100.00;99401.38;5045039;28;20491;-73
2023/01/18 10:15:50;;;;;;;34.38;16.80;;;;;;;-1.66;100.00;99400.78;5047058;28;20040;-73
2023/01/18 10:18:17;;;;;;;34.25;16.45;;;;;;;-1.60;100.00;99405.41;5048735;28;20032;-73
2023/01/18 10:21:06;;;;;;;36.05;16.52;;;;;;;-1.50;100.00;99400.47;5044910;28;20052;-73
2023/01/18 10:31:43;;;;;;;32.03;14.73;;;;;;;-1.37;100.00;99404.53;5046623;28;20522;-73
2023/01/18 11:15:17;;;;;;;32.42;14.93;;;;;;;-0.50;99.85;99428.59;5050739;28;20044;-79
2023/01/18 11:17:53;;;;;;;29.02;13.45;;;;;;;-0.53;100.00;99426.28;5015513;28;20082;-78
2023/01/18 11:20:28;;;;;;;31.33;15.00;;;;;;;-0.44;99.70;99433.22;5048060;28;20041;-77
2023/01/18 11:23:00;;;;;;;30.52;14.55;;;;;;;-0.32;98.75;99439.09;5023812;28;20037;-80
2023/01/18 11:25:33;;;;;;;33.28;13.57;;;;;;;-0.37;98.75;99431.81;5040117;28;20119;-79
2023/01/18 11:28:02;;;;;;;37.05;14.50;;;;;;;-0.42;99.62;99433.91;5031531;28;20401;-79
2023/01/18 11:30:27;;;;;;;29.67;14.20;;;;;;;-0.47;99.43;99430.91;5049839;28;20033;-77
2023/01/18 11:32:53;;;;;;;28.45;13.60;;;;;;;-0.43;99.46;99428.00;5062620;28;20033;-79
2023/01/18 11:35:31;;;;;;;29.73;13.55;;;;;;;-0.41;99.30;99426.16;5045379;28;20068;-79
2023/01/18 11:37:58;;;;;;;33.67;14.15;;;;;;;-0.27;98.97;99432.72;5062718;28;20029;-78
2023/01/18 11:40:27;;;;;;;27.33;14.45;;;;;;;-0.21;98.16;99428.88;5048057;28;20033;-80
2023/01/18 11:43:00;;;;;;;24.00;12.38;;;;;;;-0.09;97.46;99433.03;5061012;28;20120;-79
2023/01/18 11:45:39;;;;;;;21.75;11.85;;;;;;;-0.13;96.90;99433.38;5060659;28;20079;-78
2023/01/18 11:48:28;;;;;;;27.63;11.98;;;;;;;-0.06;96.74;99431.97;5031937;28;20029;-79
2023/01/18 11:51:08;;;;;;;21.95;11.68;;;;;;;-0.10;96.91;99431.38;5049120;28;20036;-80
2023/01/18 11:53:42;;;;;;;24.70;11.50;;;;;;;0.03;96.41;99433.00;5031292;28;20123;-77
2023/01/18 11:56:20;;;;;;;24.48;11.63;;;;;;;0.11;95.79;99426.31;5043438;28;20049;-77
2023/01/18 11:58:48;;;;;;;26.67;12.50;;;;;;;0.12;95.34;99427.97;5061652;28;20082;-80
2023/01/18 12:01:55;;;;;;;22.23;10.43;;;;;;;0.21;94.86;99430.69;5044384;28;20032;-78
2023/01/18 12:04:41;;;;;;;27.02;10.57;;;;;;;0.42;93.23;99426.44;5063680;28;20043;-76
2023/01/18 12:07:15;;;;;;;21.90;10.00;;;;;;;0.49;92.61;99429.28;5048448;28;20056;-79
2023/01/18 12:09:56;;;;;;;22.80;11.23;;;;;;;0.44;93.60;99426.31;5062686;28;20092;-77
2023/01/18 12:12:40;;;;;;;23.15;10.13;;;;;;;0.48;93.06;99433.59;5041412;28;20159;-78
2023/01/18 12:15:43;;;;;;;23.65;11.25;;;;;;;0.62;91.99;99431.66;5026655;28;20040;-78
2023/01/18 12:18:31;;;;;;;23.98;11.10;;;;;;;0.61;93.00;99441.06;5041582;28;20021;-78
2023/01/18 12:21:01;;;;;;;26.73;10.32;;;;;;;0.67;93.05;99432.91;5052203;28;20044;-79
2023/01/18 12:23:45;;;;;;;25.35;11.20;;;;;;;0.47;93.34;99436.25;5059578;28;20037;-78
2023/01/18 12:26:38;;;;;;;25.42;9.75;;;;;;;0.32;94.23;99444.22;5060552;28;20544;-78
2023/01/18 12:29:15;;;;;;;;;;;;;;;0.47;94.33;99449.00;5048178;28;20040;-78
2023/01/18 12:31:52;;;;;;;22.13;10.48;;;;;;;0.66;93.25;99438.13;5048934;28;19917;-79
2023/01/18 12:34:25;;;;;;;21.45;9.30;;;;;;;0.66;92.31;99438.13;5060608;28;20060;-77
2023/01/18 12:37:42;;;;;;;27.50;10.07;;;;;;;0.82;92.54;99446.16;5040467;28;20529;-77
2023/01/18 12:40:30;;;;;;;24.20;8.73;;;;;;;0.84;91.45;99441.72;5008445;28;20503;-78
2023/01/18 12:43:01;;;;;;;17.00;8.43;;;;;;;0.85;91.36;99439.97;5048020;28;20124;-79
2023/01/18 12:45:55;;;;;;;21.98;9.20;;;;;;;0.80;91.61;99444.66;5060896;28;20568;-78